Time;durP1;ratioP1;P1;durP2;ratioP2;P2;SDS_P1;SDS_P2;PMS_P1;PMS_P2;Temp;Humidity;BMP_temperature;BMP_pressure;BME280_temperature;BME280_humidity;BME280_pressure;Samples;Min_cycle;Max_cycle;Signal;HPM_P1;HPM_P2
2022/01/27 00:01:21;;;;;;;39.35;25.98;;;;;;;3.28;92.11;102818.91;5056380;28;20120;-36
2022/01/27 00:04:03;;;;;;;34.30;24.15;;;;;;;3.20;92.47;102792.81;5056339;28;20029;-36
2022/01/27 00:06:32;;;;;;;35.90;23.25;;;;;;;3.29;92.24;102801.88;5056191;28;20029;-36
2022/01/27 00:09:06;;;;;;;36.00;22.65;;;;;;;3.30;92.37;102783.00;5056066;28;20033;-36
2022/01/27 00:11:31;;;;;;;36.78;25.38;;;;;;;3.26;91.80;102781.56;5056172;28;20021;-36
2022/01/27 00:14:00;;;;;;;35.30;23.60;;;;;;;3.28;92.47;102784.97;5055558;28;20526;-36
2022/01/27 00:16:28;;;;;;;35.60;23.35;;;;;;;3.23;92.09;102759.63;5055988;28;20021;-36
2022/01/27 00:18:56;;;;;;;37.92;25.00;;;;;;;3.27;92.32;102767.25;5055434;28;20064;-36
2022/01/27 00:21:29;;;;;;;34.97;23.20;;;;;;;3.29;91.62;102770.63;5056370;28;20083;-36
2022/01/27 00:23:55;;;;;;;35.28;24.95;;;;;;;3.23;91.64;102763.16;5055898;28;20100;-36
2022/01/27 00:26:21;;;;;;;40.33;25.88;;;;;;;3.31;91.30;102782.00;5056216;28;20533;-36
2022/01/27 00:28:48;;;;;;;36.88;23.90;;;;;;;3.31;92.22;102779.34;5055733;28;20152;-36
2022/01/27 00:31:15;;;;;;;31.10;22.63;;;;;;;3.34;91.81;102789.78;5055517;28;20033;-36
2022/01/27 00:33:41;;;;;;;37.22;23.27;;;;;;;3.35;91.39;102779.91;5055179;28;20055;-35
2022/01/27 00:36:07;;;;;;;35.67;23.55;;;;;;;3.25;91.62;102753.16;5056252;28;20025;-35
2022/01/27 00:38:32;;;;;;;37.03;25.20;;;;;;;3.35;92.04;102771.91;5055643;28;20028;-35
2022/01/27 00:40:58;;;;;;;36.70;23.38;;;;;;;3.34;91.61;102768.38;5055422;28;20029;-35
2022/01/27 00:43:24;;;;;;;34.92;22.80;;;;;;;3.15;91.52;102722.88;5054965;28;20090;-35
2022/01/27 00:45:50;;;;;;;35.30;24.10;;;;;;;3.34;91.29;102744.31;5054722;28;20036;-35
2022/01/27 00:48:17;;;;;;;35.45;24.02;;;;;;;3.38;92.04;102758.25;5055319;28;20062;-35
2022/01/27 00:50:47;;;;;;;36.95;25.55;;;;;;;3.34;91.77;102768.38;5055402;28;20029;-35
2022/01/27 00:53:29;;;;;;;35.67;24.05;;;;;;;3.28;91.54;102750.22;5055042;28;20047;-35
2022/01/27 00:55:56;;;;;;;34.70;23.40;;;;;;;3.38;91.69;102757.41;5054810;28;20029;-35
2022/01/27 01:00:55;;;;;;;36.57;24.63;;;;;;;3.36;91.53;102745.00;5055030;28;20048;-35
2022/01/27 01:03:35;;;;;;;35.45;23.58;;;;;;;3.39;91.60;102746.56;5055084;28;20464;-35
2022/01/27 01:06:20;;;;;;;33.30;23.13;;;;;;;3.40;91.81;102739.41;5055447;28;20470;-35
2022/01/27 01:19:23;;;;;;;34.17;23.47;;;;;;;3.28;91.44;102710.09;5054700;28;20136;-35
2022/01/27 01:32:52;;;;;;;33.08;22.08;;;;;;;3.39;91.61;102714.50;5054395;28;20090;-35
2022/01/27 01:35:26;;;;;;;32.75;21.45;;;;;;;3.41;91.74;102695.63;5053213;28;20041;-35
2022/01/27 01:37:53;;;;;;;32.90;21.55;;;;;;;3.45;91.62;102683.66;5054567;28;20406;-35
2022/01/27 01:40:18;;;;;;;34.63;21.27;;;;;;;3.45;91.69;102683.66;5054625;28;20025;-36
2022/01/27 01:42:44;;;;;;;34.45;22.05;;;;;;;3.50;91.41;102686.75;5054151;28;20025;-35
2022/01/27 01:45:13;;;;;;;29.60;20.95;;;;;;;3.42;91.17;102681.28;5054330;28;20350;-35
2022/01/27 01:47:39;;;;;;;33.08;22.83;;;;;;;3.44;91.87;102681.97;5053983;28;20104;-35
2022/01/27 01:50:07;;;;;;;31.42;21.67;;;;;;;3.47;91.41;102695.09;5054637;28;20100;-35
2022/01/27 01:52:33;;;;;;;36.22;22.98;;;;;;;3.45;91.07;102678.31;5053943;28;20104;-35
2022/01/27 01:55:00;;;;;;;33.97;21.95;;;;;;;3.55;91.06;102696.06;5053449;28;20036;-35
2022/01/27 01:57:25;;;;;;;31.58;22.23;;;;;;;3.57;91.27;102685.22;5053584;28;20465;-35
2022/01/27 01:59:51;;;;;;;31.17;21.40;;;;;;;3.57;90.98;102683.41;5054313;28;20120;-35
2022/01/27 02:02:16;;;;;;;31.33;21.40;;;;;;;3.61;90.71;102682.16;5053772;28;20056;-35
2022/01/27 02:04:43;;;;;;;32.00;21.97;;;;;;;3.59;91.13;102669.88;5054266;28;20528;-35
2022/01/27 02:07:26;;;;;;;31.52;22.48;;;;;;;3.59;90.80;102651.16;5053690;28;20079;-35
2022/01/27 02:10:15;;;;;;;35.92;21.98;;;;;;;3.59;90.70;102645.81;5053826;28;20089;-35
2022/01/27 02:18:08;;;;;;;35.05;24.20;;;;;;;3.60;90.77;102645.66;5053811;28;20106;-35
2022/01/27 02:20:36;;;;;;;29.52;21.20;;;;;;;3.63;90.99;102649.88;5053842;28;20025;-35
2022/01/27 02:23:07;;;;;;;29.67;21.95;;;;;;;3.51;90.90;102634.94;5053749;28;20361;-35
2022/01/27 02:25:32;;;;;;;31.65;21.73;;;;;;;3.65;91.11;102649.75;5054197;28;20037;-35
2022/01/27 02:27:58;;;;;;;29.48;21.30;;;;;;;3.65;91.06;102647.06;5053281;28;20427;-35
2022/01/27 02:30:25;;;;;;;31.67;21.52;;;;;;;3.57;90.85;102631.72;5054139;28;20428;-35
2022/01/27 02:32:52;;;;;;;;;;;;;;;3.72;90.96;102653.56;5053466;28;20485;-35
2022/01/27 02:35:19;;;;;;;30.67;20.98;;;;;;;3.67;91.73;102648.63;5053187;28;19913;-35
2022/01/27 02:37:44;;;;;;;33.13;22.40;;;;;;;3.66;91.28;102646.06;5053157;28;20036;-35
2022/01/27 02:40:11;;;;;;;32.57;22.57;;;;;;;3.64;91.00;102632.84;5052268;28;20389;-35
2022/01/27 02:42:37;;;;;;;32.28;21.83;;;;;;;3.65;90.79;102626.50;5053092;28;20259;-35
2022/01/27 02:45:17;;;;;;;27.60;20.13;;;;;;;3.68;91.28;102642.28;5053348;28;20036;-35
2022/01/27 02:47:42;;;;;;;31.50;21.15;;;;;;;3.63;91.51;102633.84;5053243;28;20373;-35
2022/01/27 02:50:08;;;;;;;32.17;22.67;;;;;;;3.65;91.38;102625.66;5053298;28;20039;-35
2022/01/27 02:52:33;;;;;;;29.52;20.73;;;;;;;3.66;90.97;102612.16;5052746;28;20040;-35
2022/01/27 02:54:59;;;;;;;37.50;23.43;;;;;;;3.65;91.63;102588.19;5053342;28;20025;-35
2022/01/27 02:57:24;;;;;;;31.03;21.90;;;;;;;3.63;91.79;102583.00;5052959;28;20029;-36
2022/01/27 02:59:51;;;;;;;34.65;22.60;;;;;;;3.63;91.66;102598.22;5053461;28;20021;-35
2022/01/27 03:02:16;;;;;;;;;;;;;;;3.64;91.96;102600.75;5053102;28;20037;-35
2022/01/27 03:04:42;;;;;;;33.38;20.60;;;;;;;3.55;91.85;102591.72;5053222;28;19915;-36
2022/01/27 03:07:08;;;;;;;32.13;23.20;;;;;;;3.64;92.05;102607.91;5053659;28;20033;-36
2022/01/27 03:09:34;;;;;;;34.38;21.17;;;;;;;3.63;92.13;102599.06;5056995;28;20032;-35
2022/01/27 03:12:01;;;;;;;;;;;;;;;3.70;91.60;102597.47;5057412;28;20037;-35
2022/01/27 03:14:27;;;;;;;33.50;20.63;;;;;;;3.68;91.89;102588.78;5056410;28;20272;-35
2022/01/27 03:16:58;;;;;;;30.30;20.15;;;;;;;3.58;92.04;102567.38;5057044;28;20079;-35
2022/01/27 03:19:24;;;;;;;28.90;18.80;;;;;;;3.55;92.20;102577.50;5056885;28;20082;-35
2022/01/27 03:21:50;;;;;;;30.52;20.23;;;;;;;3.63;92.26;102585.69;5057153;28;20021;-35
2022/01/27 03:24:16;;;;;;;30.60;19.98;;;;;;;3.64;92.40;102578.50;5057572;28;20112;-35
2022/01/27 03:26:42;;;;;;;29.05;19.80;;;;;;;3.64;93.02;102582.00;5056697;28;20036;-35
2022/01/27 03:29:08;;;;;;;29.45;19.30;;;;;;;3.62;92.75;102584.00;5057321;28;20055;-35
2022/01/27 03:31:33;;;;;;;28.13;19.37;;;;;;;3.61;92.61;102577.81;5056425;28;20036;-35
2022/01/27 03:33:59;;;;;;;29.17;20.00;;;;;;;3.62;93.14;102567.94;5056403;28;20025;-35
2022/01/27 03:36:25;;;;;;;32.47;20.27;;;;;;;3.56;92.99;102566.69;5055860;28;20122;-35
2022/01/27 03:38:50;;;;;;;34.92;22.00;;;;;;;3.67;93.18;102581.72;5056586;28;20138;-35
2022/01/27 03:41:20;;;;;;;31.60;20.67;;;;;;;3.64;92.71;102576.66;5057234;28;20045;-35
2022/01/27 03:43:46;;;;;;;33.72;21.05;;;;;;;3.66;93.02;102566.69;5055148;28;20421;-35
2022/01/27 03:46:12;;;;;;;31.23;19.35;;;;;;;3.65;92.90;102567.63;5056134;28;20021;-35
2022/01/27 03:48:37;;;;;;;29.83;20.20;;;;;;;3.69;93.14;102568.22;5056569;28;20032;-35
2022/01/27 03:51:03;;;;;;;28.23;19.07;;;;;;;3.59;93.29;102555.69;5056401;28;20021;-36
2022/01/27 03:53:28;;;;;;;31.00;20.23;;;;;;;3.66;92.60;102563.13;5056381;28;20104;-35
2022/01/27 03:55:54;;;;;;;31.70;20.87;;;;;;;3.58;93.02;102537.13;5056482;28;20067;-36
2022/01/27 03:58:19;;;;;;;33.83;20.30;;;;;;;3.59;93.41;102542.31;5056107;28;20033;-35
2022/01/27 04:00:44;;;;;;;27.33;18.67;;;;;;;3.63;93.44;102529.50;5056573;28;20039;-36
2022/01/27 04:03:13;;;;;;;28.07;19.67;;;;;;;3.60;93.47;102527.94;5055145;28;20104;-35
2022/01/27 04:05:42;;;;;;;33.38;19.83;;;;;;;3.58;93.76;102526.41;5056746;28;20072;-35
2022/01/27 04:08:10;;;;;;;31.42;20.17;;;;;;;3.50;93.93;102527.13;5054458;28;20473;-35
2022/01/27 04:10:36;;;;;;;30.10;20.35;;;;;;;3.49;94.48;102522.75;5056438;28;20033;-35
2022/01/27 04:13:06;;;;;;;29.13;20.15;;;;;;;3.57;93.92;102532.75;5055662;28;20061;-36
2022/01/27 04:15:32;;;;;;;29.20;19.50;;;;;;;3.56;94.14;102517.66;5056483;28;20365;-35
2022/01/27 04:17:58;;;;;;;28.25;19.05;;;;;;;3.48;94.30;102502.34;5055508;28;20061;-35
2022/01/27 04:20:23;;;;;;;33.65;20.63;;;;;;;3.29;94.17;102463.13;5055824;28;20072;-36
2022/01/27 04:22:48;;;;;;;30.27;19.47;;;;;;;3.50;94.50;102508.41;5055720;28;20078;-36
2022/01/27 04:25:15;;;;;;;32.03;19.80;;;;;;;3.49;94.75;102504.03;5056427;28;20029;-35
2022/01/27 04:27:44;;;;;;;;;;;;;;;3.52;94.81;102508.28;5055720;28;20394;-36
2022/01/27 04:30:17;;;;;;;30.38;18.75;;;;;;;3.46;94.41;102503.47;5056123;28;20415;-35
2022/01/27 04:32:48;;;;;;;33.92;19.77;;;;;;;3.45;94.91;102483.06;5055483;28;20095;-35
2022/01/27 04:35:17;;;;;;;32.03;19.88;;;;;;;3.44;95.64;102486.75;5055495;28;20025;-36
2022/01/27 04:37:55;;;;;;;29.67;19.73;;;;;;;3.45;95.63;102499.13;5054628;28;20036;-35
2022/01/27 04:40:30;;;;;;;32.28;20.13;;;;;;;3.47;95.43;102494.50;5055331;28;20462;-35
2022/01/27 04:45:33;;;;;;;30.98;19.25;;;;;;;3.47;95.41;102492.66;5055573;28;20116;-35
2022/01/27 04:48:08;;;;;;;37.47;20.55;;;;;;;3.50;95.89;102489.66;5055147;28;20017;-35
2022/01/27 04:50:34;;;;;;;31.65;19.73;;;;;;;3.51;95.69;102490.50;5055974;28;20021;-35
2022/01/27 04:53:01;;;;;;;28.47;19.17;;;;;;;3.50;96.19;102483.47;5055533;28;20035;-35
2022/01/27 04:55:27;;;;;;;30.75;20.20;;;;;;;3.50;95.76;102484.31;5055585;28;20025;-35
2022/01/27 04:58:05;;;;;;;30.07;18.93;;;;;;;3.50;95.76;102478.13;5055049;28;20188;-35
2022/01/27 05:00:30;;;;;;;29.42;19.30;;;;;;;3.49;95.64;102471.09;5055312;28;20370;-35
2022/01/27 05:02:59;;;;;;;31.50;19.37;;;;;;;3.51;96.02;102463.75;5055596;28;20112;-35
2022/01/27 05:05:24;;;;;;;28.80;18.30;;;;;;;3.52;96.07;102466.31;5053842;28;20088;-35
2022/01/27 05:08:00;;;;;;;31.08;19.58;;;;;;;3.53;95.95;102468.00;5054832;28;20033;-35
2022/01/27 05:10:30;;;;;;;35.05;18.90;;;;;;;3.53;96.16;102457.28;5055182;28;20046;-35
2022/01/27 05:13:02;;;;;;;30.17;19.00;;;;;;;3.52;95.71;102458.28;5055020;28;20064;-35
2022/01/27 05:15:27;;;;;;;30.30;17.98;;;;;;;3.53;96.17;102461.81;5055321;28;20053;-35
2022/01/27 05:17:53;;;;;;;31.93;18.20;;;;;;;3.57;96.41;102457.84;5055240;28;20457;-35
2022/01/27 05:20:18;;;;;;;30.77;19.43;;;;;;;3.57;96.53;102453.34;5054502;28;20491;-35
2022/01/27 05:22:43;;;;;;;28.07;18.10;;;;;;;3.60;96.23;102438.81;5054706;28;20082;-35
2022/01/27 05:25:09;;;;;;;31.27;19.67;;;;;;;3.59;96.16;102426.44;5054947;28;20116;-36
2022/01/27 05:27:35;;;;;;;29.92;18.50;;;;;;;3.72;96.51;102434.97;5054414;28;20115;-35
2022/01/27 05:30:00;;;;;;;29.23;17.90;;;;;;;3.74;96.59;102435.66;5054426;28;20048;-35
2022/01/27 05:32:25;;;;;;;31.35;18.52;;;;;;;3.77;96.39;102423.84;5054207;28;20040;-35
2022/01/27 05:34:51;;;;;;;31.30;18.87;;;;;;;3.80;96.01;102424.38;5054914;28;20074;-35
2022/01/27 05:37:16;;;;;;;28.47;16.93;;;;;;;3.84;96.02;102432.94;5054600;28;20112;-35
2022/01/27 05:39:41;;;;;;;27.33;17.93;;;;;;;3.87;96.11;102419.28;5054750;28;20032;-36
2022/01/27 05:42:07;;;;;;;30.23;17.93;;;;;;;3.87;96.30;102412.09;5053805;28;20029;-36
2022/01/27 05:44:32;;;;;;;25.57;17.10;;;;;;;3.88;95.84;102407.59;5054042;28;20029;-36
2022/01/27 05:46:58;;;;;;;27.00;16.53;;;;;;;3.86;95.71;102405.06;5054571;28;20029;-36
2022/01/27 05:49:23;;;;;;;30.83;17.93;;;;;;;3.96;95.36;102414.88;5053045;28;20760;-36
2022/01/27 05:51:49;;;;;;;28.20;17.63;;;;;;;4.00;95.30;102416.25;5053952;28;20461;-36
2022/01/27 05:54:14;;;;;;;27.83;18.27;;;;;;;3.94;95.46;102416.84;5053808;28;20112;-36
2022/01/27 05:56:39;;;;;;;32.00;17.87;;;;;;;4.04;95.34;102429.19;5053770;28;20028;-36
2022/01/27 05:59:05;;;;;;;30.83;17.37;;;;;;;4.04;95.42;102423.81;5053974;28;20037;-36
2022/01/27 06:01:30;;;;;;;27.07;17.83;;;;;;;4.09;95.48;102420.69;5054422;28;20426;-36
2022/01/27 06:03:56;;;;;;;29.87;18.00;;;;;;;4.05;96.21;102401.44;5054572;28;20032;-36
2022/01/27 06:06:21;;;;;;;29.77;18.92;;;;;;;4.07;96.67;102403.97;5054484;28;20104;-36
2022/01/27 06:08:46;;;;;;;31.37;19.70;;;;;;;4.06;96.76;102405.78;5054640;28;20024;-36
2022/01/27 06:11:12;;;;;;;27.20;17.73;;;;;;;4.06;97.21;102403.13;5053651;28;20104;-36
2022/01/27 06:13:38;;;;;;;27.53;18.20;;;;;;;4.06;96.91;102407.63;5053935;28;20453;-36
2022/01/27 06:16:09;;;;;;;28.52;17.95;;;;;;;3.99;97.83;102385.97;5054130;28;20029;-36
2022/01/27 06:18:35;;;;;;;29.40;18.52;;;;;;;4.05;97.25;102397.91;5053738;28;20047;-36
2022/01/27 06:21:03;;;;;;;31.35;18.85;;;;;;;4.04;98.38;102398.91;5053780;28;20040;-36
2022/01/27 06:23:29;;;;;;;32.60;19.20;;;;;;;4.04;98.91;102399.72;5053623;28;20029;-36
2022/01/27 06:25:54;;;;;;;30.20;19.03;;;;;;;4.01;98.24;102392.03;5053641;28;20083;-36
2022/01/27 06:28:20;;;;;;;29.30;19.50;;;;;;;4.06;98.35;102404.97;5053169;28;20053;-36
2022/01/27 06:30:45;;;;;;;27.43;18.10;;;;;;;4.07;98.87;102398.59;5053505;28;20267;-36
2022/01/27 06:33:11;;;;;;;34.47;19.67;;;;;;;4.06;98.38;102380.88;5053495;28;20028;-36
2022/01/27 06:35:37;;;;;;;31.50;19.17;;;;;;;4.08;98.40;102384.22;5054267;28;20258;-36
2022/01/27 06:38:03;;;;;;;34.15;20.98;;;;;;;4.01;99.23;102369.78;5053634;28;20163;-36
2022/01/27 06:40:29;;;;;;;30.38;18.55;;;;;;;4.10;98.44;102375.06;5053937;28;20075;-36
2022/01/27 06:42:54;;;;;;;34.37;20.53;;;;;;;4.10;98.67;102374.22;5052481;28;20053;-36
2022/01/27 06:45:20;;;;;;;36.60;21.07;;;;;;;4.10;98.79;102368.88;5053620;28;20754;-36
2022/01/27 06:47:45;;;;;;;30.77;20.83;;;;;;;4.10;99.35;102371.53;5053251;28;20037;-36
2022/01/27 06:50:10;;;;;;;39.23;20.10;;;;;;;4.09;99.42;102377.88;5053787;28;20413;-36
2022/01/27 06:52:36;;;;;;;32.87;20.00;;;;;;;4.10;99.48;102375.06;5053203;28;20173;-36
2022/01/27 06:55:03;;;;;;;33.60;20.17;;;;;;;4.10;99.95;102368.88;5053483;28;20111;-36
2022/01/27 06:57:29;;;;;;;35.75;19.20;;;;;;;4.11;99.41;102368.72;5052185;28;20432;-36
2022/01/27 06:59:54;;;;;;;37.03;22.43;;;;;;;3.88;99.74;102327.28;5053162;28;20033;-36
2022/01/27 07:02:19;;;;;;;29.53;18.83;;;;;;;4.15;99.26;102377.28;5053183;28;20124;-36
2022/01/27 07:04:45;;;;;;;33.13;20.33;;;;;;;4.05;99.49;102339.88;5053641;28;20025;-36
2022/01/27 07:07:10;;;;;;;33.90;19.37;;;;;;;4.19;99.88;102364.41;5052838;28;20135;-36
2022/01/27 07:09:36;;;;;;;33.77;18.90;;;;;;;4.19;99.26;102357.22;5053083;28;20029;-36
2022/01/27 07:12:02;;;;;;;34.10;20.80;;;;;;;4.20;99.37;102363.41;5052673;28;20443;-36
2022/01/27 07:14:27;;;;;;;;;;;;;;;4.25;100.00;102361.16;5053400;28;20420;-36
2022/01/27 07:16:53;;;;;;;31.02;18.48;;;;;;;4.23;99.63;102361.28;5052867;28;19908;-36
2022/01/27 07:19:18;;;;;;;33.33;19.80;;;;;;;4.25;99.92;102362.00;5053163;28;20060;-36
2022/01/27 07:21:44;;;;;;;32.67;19.80;;;;;;;4.29;99.83;102374.06;5051264;28;20276;-36
2022/01/27 07:24:09;;;;;;;33.67;20.13;;;;;;;4.28;100.00;102382.25;5053726;28;20115;-36
2022/01/27 07:26:34;;;;;;;36.50;20.53;;;;;;;4.25;99.55;102372.69;5053399;28;20056;-36
2022/01/27 07:29:00;;;;;;;31.13;20.93;;;;;;;4.33;99.67;102394.19;5052988;28;20087;-36
2022/01/27 07:31:25;;;;;;;35.00;19.43;;;;;;;4.34;99.38;102393.22;5052805;28;20466;-36
2022/01/27 07:33:52;;;;;;;34.80;19.15;;;;;;;4.31;99.35;102379.28;5052835;28;20096;-36
2022/01/27 07:36:19;;;;;;;37.13;19.90;;;;;;;4.35;99.18;102389.53;5053299;28;20040;-36
2022/01/27 07:38:45;;;;;;;34.28;19.38;;;;;;;4.39;99.99;102376.66;5052699;28;20385;-36
2022/01/27 07:41:15;;;;;;;34.95;19.92;;;;;;;4.42;99.52;102380.88;5052950;28;20496;-36
2022/01/27 07:43:41;;;;;;;34.17;20.73;;;;;;;4.41;99.93;102381.88;5053475;28;20032;-36
2022/01/27 07:46:07;;;;;;;34.80;21.10;;;;;;;4.32;100.00;102368.41;5052435;28;20021;-36
2022/01/27 07:48:33;;;;;;;36.67;20.63;;;;;;;4.40;100.00;102378.38;5052527;28;20021;-36
2022/01/27 07:51:01;;;;;;;32.45;20.23;;;;;;;4.36;100.00;102379.66;5052889;28;20123;-36
2022/01/27 07:53:26;;;;;;;37.20;19.63;;;;;;;4.34;100.00;102387.88;5053533;28;20033;-36
2022/01/27 07:55:51;;;;;;;39.83;22.37;;;;;;;4.34;100.00;102395.03;5056887;28;20025;-36
2022/01/27 07:58:17;;;;;;;39.03;22.07;;;;;;;4.32;100.00;102392.50;5056328;28;20029;-36
2022/01/27 08:00:42;;;;;;;35.93;22.00;;;;;;;4.23;100.00;102374.66;5056565;28;20122;-36
2022/01/27 08:03:07;;;;;;;40.50;23.87;;;;;;;4.22;100.00;102367.63;5055826;28;20063;-36
2022/01/27 08:05:33;;;;;;;35.07;22.27;;;;;;;4.29;100.00;102390.13;5055332;28;20028;-36
2022/01/27 08:07:59;;;;;;;34.27;21.83;;;;;;;4.28;100.00;102393.81;5056047;28;20025;-36
2022/01/27 08:10:24;;;;;;;44.22;23.80;;;;;;;4.28;100.00;102382.25;5056411;28;20021;-36
2022/01/27 08:12:50;;;;;;;42.33;23.98;;;;;;;4.28;100.00;102396.47;5056077;28;20492;-36
2022/01/27 08:15:19;;;;;;;40.63;23.07;;;;;;;4.26;100.00;102379.72;5056195;28;20043;-36
2022/01/27 08:17:44;;;;;;;40.55;23.38;;;;;;;4.18;100.00;102371.59;5055961;28;20385;-36
2022/01/27 08:20:10;;;;;;;46.47;25.73;;;;;;;4.24;100.00;102380.88;5056010;28;20029;-36
2022/01/27 08:22:39;;;;;;;41.85;24.48;;;;;;;4.26;100.00;102385.09;5055881;28;20028;-36
2022/01/27 08:25:05;;;;;;;42.92;24.33;;;;;;;4.27;100.00;102389.44;5056608;28;20028;-36
2022/01/27 08:27:31;;;;;;;42.83;25.45;;;;;;;4.24;100.00;102386.22;5055465;28;20481;-36
2022/01/27 08:30:02;;;;;;;46.25;24.38;;;;;;;4.28;100.00;102380.41;5056119;28;20120;-36
2022/01/27 08:35:20;;;;;;;46.72;27.50;;;;;;;4.30;100.00;102378.44;5013826;28;20042;-36
2022/01/27 08:37:47;;;;;;;47.88;26.92;;;;;;;4.29;100.00;102381.25;5014278;28;20037;-36
2022/01/27 08:40:15;;;;;;;46.22;26.92;;;;;;;4.27;100.00;102370.69;5014282;28;20568;-37
2022/01/27 08:42:42;;;;;;;45.92;25.95;;;;;;;4.33;100.00;102385.31;5013946;28;20037;-36
2022/01/27 08:45:12;;;;;;;51.05;25.80;;;;;;;4.30;100.00;102378.44;5013268;28;20188;-36
2022/01/27 08:47:39;;;;;;;46.40;26.60;;;;;;;4.36;100.00;102382.34;5013828;28;20038;-35
2022/01/27 08:50:07;;;;;;;38.22;23.88;;;;;;;4.39;100.00;102385.56;5013480;28;20034;-35
2022/01/27 08:52:33;;;;;;;44.60;25.50;;;;;;;4.41;100.00;102379.22;5013275;28;20517;-36
2022/01/27 08:54:59;;;;;;;44.35;27.00;;;;;;;4.42;100.00;102370.16;5013373;28;20533;-36
2022/01/27 08:57:24;;;;;;;50.40;27.80;;;;;;;4.45;100.00;102375.22;5013681;28;20037;-36
2022/01/27 08:59:51;;;;;;;46.38;26.40;;;;;;;4.41;100.00;102366.66;5013758;28;20100;-35
2022/01/27 09:02:16;;;;;;;49.90;26.00;;;;;;;4.49;100.00;102379.25;5013009;28;20356;-35
2022/01/27 09:04:42;;;;;;;40.23;24.73;;;;;;;4.52;100.00;102378.97;5012224;28;20080;-35
2022/01/27 09:07:07;;;;;;;41.13;24.67;;;;;;;4.53;100.00;102376.13;5012878;28;20470;-36
2022/01/27 09:09:32;;;;;;;46.53;26.33;;;;;;;4.55;100.00;102384.03;5012933;28;20073;-36
2022/01/27 09:11:59;;;;;;;45.67;26.80;;;;;;;4.55;100.00;102384.88;5031468;28;20545;-36
2022/01/27 09:14:29;;;;;;;44.53;25.98;;;;;;;4.57;100.00;102385.53;5054648;28;20104;-36
2022/01/27 09:16:56;;;;;;;45.47;25.55;;;;;;;4.60;100.00;102373.69;5054874;28;20029;-36
2022/01/27 09:19:21;;;;;;;44.75;25.42;;;;;;;4.61;100.00;102381.56;5054804;28;20033;-36
2022/01/27 09:21:47;;;;;;;43.78;25.33;;;;;;;4.65;100.00;102371.38;5054798;28;20131;-36
2022/01/27 09:24:16;;;;;;;45.03;25.80;;;;;;;4.67;100.00;102366.69;5054001;28;20041;-36
2022/01/27 09:26:52;;;;;;;42.00;24.73;;;;;;;4.70;100.00;102371.75;5054661;28;20490;-36
2022/01/27 09:29:19;;;;;;;42.00;23.77;;;;;;;4.74;100.00;102369.63;5054893;28;20049;-36
2022/01/27 09:31:46;;;;;;;40.83;23.38;;;;;;;4.76;100.00;102363.09;5054336;28;20075;-36
2022/01/27 09:34:12;;;;;;;40.55;24.42;;;;;;;4.78;100.00;102362.94;5054268;28;20075;-35
2022/01/27 09:36:37;;;;;;;44.97;25.20;;;;;;;4.74;100.00;102362.41;5054491;28;20052;-36
2022/01/27 09:39:03;;;;;;;38.10;22.47;;;;;;;4.83;100.00;102365.97;5054615;28;20025;-36
2022/01/27 09:41:35;;;;;;;42.17;24.05;;;;;;;4.77;100.00;102356.72;5054530;28;20021;-35
2022/01/27 09:44:01;;;;;;;34.65;21.55;;;;;;;4.88;100.00;102364.53;5055026;28;20064;-35
2022/01/27 09:46:27;;;;;;;35.25;22.35;;;;;;;4.90;100.00;102367.91;5054573;28;20050;-35
2022/01/27 09:48:54;;;;;;;39.42;22.38;;;;;;;4.93;100.00;102365.88;5053908;28;20362;-36
2022/01/27 09:53:55;;;;;;;33.45;20.45;;;;;;;4.99;100.00;102381.38;5054158;28;20041;-35
2022/01/27 09:56:22;;;;;;;34.58;21.33;;;;;;;4.99;100.00;102384.06;5054133;28;20033;-35
2022/01/27 09:58:47;;;;;;;;;;;;;;;5.06;100.00;102382.41;5053216;28;20032;-35
2022/01/27 10:01:13;;;;;;;31.65;18.92;;;;;;;5.08;100.00;102385.78;5054357;28;19921;-35
2022/01/27 10:03:53;;;;;;;28.57;18.47;;;;;;;5.11;100.00;102391.66;5053949;28;20047;-35
2022/01/27 10:06:21;;;;;;;28.00;17.85;;;;;;;5.14;100.00;102380.63;5053854;28;20033;-35
2022/01/27 10:09:09;;;;;;;28.55;17.55;;;;;;;5.19;100.00;102374.78;5053706;28;20411;-36
2022/01/27 10:11:35;;;;;;;27.88;16.33;;;;;;;5.14;100.00;102358.34;5054127;28;20057;-35
2022/01/27 10:14:25;;;;;;;28.23;16.90;;;;;;;5.22;100.00;102369.13;5053523;28;20495;-36
2022/01/27 10:16:56;;;;;;;26.77;16.00;;;;;;;5.15;100.00;102355.50;5054071;28;20025;-35
2022/01/27 10:19:23;;;;;;;24.58;15.07;;;;;;;5.28;100.00;102373.00;5053718;28;20033;-35
2022/01/27 10:21:49;;;;;;;22.38;15.52;;;;;;;5.24;100.00;102364.44;5053150;28;20507;-35
2022/01/27 10:24:24;;;;;;;24.77;15.88;;;;;;;5.32;100.00;102377.91;5053934;28;20114;-35
2022/01/27 10:32:24;;;;;;;22.52;12.82;;;;;;;5.39;100.00;102386.13;5053779;28;20033;-35
2022/01/27 10:34:54;;;;;;;19.38;12.70;;;;;;;5.42;100.00;102383.16;5054055;28;20070;-35
2022/01/27 10:37:20;;;;;;;18.92;12.98;;;;;;;5.44;100.00;102375.78;5053413;28;20477;-36
2022/01/27 10:39:47;;;;;;;20.97;13.43;;;;;;;5.45;100.00;102374.75;5053368;28;20033;-36
2022/01/27 10:42:12;;;;;;;18.02;12.02;;;;;;;5.48;100.00;102373.63;5053526;28;20036;-36
2022/01/27 10:44:45;;;;;;;17.60;11.98;;;;;;;5.51;100.00;102384.00;5053120;28;20033;-36
2022/01/27 10:47:21;;;;;;;21.20;12.18;;;;;;;5.47;100.00;102363.91;5053463;28;20037;-36
2022/01/27 10:49:54;;;;;;;17.85;11.65;;;;;;;5.49;100.00;102365.41;5053132;28;20033;-36
2022/01/27 10:55:07;;;;;;;17.88;11.25;;;;;;;5.58;100.00;102377.03;5053249;28;20037;-36
2022/01/27 10:57:33;;;;;;;15.93;11.45;;;;;;;5.68;100.00;102388.47;5054033;28;20031;-35
2022/01/27 11:00:24;;;;;;;15.50;12.23;;;;;;;5.71;100.00;102381.91;5053187;28;20392;-36
2022/01/27 11:02:58;;;;;;;18.63;12.68;;;;;;;5.72;100.00;102379.09;5050548;28;20044;-35
2022/01/27 11:05:26;;;;;;;20.88;12.30;;;;;;;5.64;100.00;102363.78;5053192;28;20025;-35
2022/01/27 11:07:51;;;;;;;18.27;12.10;;;;;;;5.73;100.00;102372.72;5052965;28;20028;-35
2022/01/27 11:10:19;;;;;;;16.23;11.73;;;;;;;5.78;100.00;102369.56;5053865;28;20033;-35
2022/01/27 11:12:45;;;;;;;16.83;11.73;;;;;;;5.79;100.00;102374.75;5052912;28;20052;-35
2022/01/27 11:15:16;;;;;;;18.30;12.32;;;;;;;5.81;100.00;102366.56;5053248;28;20032;-36
2022/01/27 11:17:43;;;;;;;21.08;13.93;;;;;;;5.85;100.00;102359.84;5053015;28;20082;-35
2022/01/27 11:28:05;;;;;;;24.08;14.60;;;;;;;6.00;100.00;102343.97;5053181;28;20063;-36
2022/01/27 11:30:41;;;;;;;27.30;14.32;;;;;;;6.04;100.00;102348.00;5056642;28;20048;-35
2022/01/27 11:33:10;;;;;;;20.17;13.48;;;;;;;6.03;100.00;102330.22;5056499;28;20053;-35
2022/01/27 11:35:36;;;;;;;22.17;12.82;;;;;;;6.07;100.00;102336.94;5056683;28;20133;-36
2022/01/27 11:38:04;;;;;;;18.20;13.00;;;;;;;6.08;100.00;102334.09;5056645;28;20235;-36
2022/01/27 11:40:37;;;;;;;22.48;13.65;;;;;;;6.10;100.00;102324.03;5057137;28;20029;-36
2022/01/27 11:43:14;;;;;;;19.35;13.23;;;;;;;6.12;100.00;102327.38;5056219;28;20028;-36
2022/01/27 11:45:46;;;;;;;19.38;13.30;;;;;;;6.14;100.00;102325.34;5056575;28;20044;-36
2022/01/27 11:48:21;;;;;;;22.30;12.23;;;;;;;6.15;100.00;102332.44;5056132;28;20043;-35
2022/01/27 11:50:52;;;;;;;20.17;12.82;;;;;;;6.09;100.00;102308.91;5056428;28;20029;-35
2022/01/27 11:53:31;;;;;;;21.77;12.38;;;;;;;6.18;100.00;102325.88;5056342;28;20037;-35
2022/01/27 11:56:29;;;;;;;28.27;13.80;;;;;;;6.22;100.00;102319.16;5056797;28;20423;-36
2022/01/27 11:59:01;;;;;;;21.30;12.38;;;;;;;6.23;100.00;102331.59;5056607;28;20465;-36
2022/01/27 12:01:30;;;;;;;22.58;13.75;;;;;;;6.24;100.00;102333.25;5056352;28;20078;-36
2022/01/27 12:04:09;;;;;;;21.85;13.38;;;;;;;6.27;100.00;102332.94;5056045;28;20397;-36
2022/01/27 12:06:49;;;;;;;19.50;13.38;;;;;;;6.29;100.00;102328.22;5056539;28;20052;-36
2022/01/27 12:09:17;;;;;;;23.58;14.10;;;;;;;6.30;100.00;102327.25;5056440;28;20455;-36
2022/01/27 12:11:55;;;;;;;19.80;12.18;;;;;;;6.31;100.00;102323.53;5056927;28;20111;-36
2022/01/27 12:14:23;;;;;;;18.67;13.00;;;;;;;6.32;100.00;102321.69;5055908;28;20108;-36